Terminal Aerodrome Forecast
Issued by NWS Des Moines, IA

Home | Current Version | Previous Version | Text Only | Print | Product List | Glossary On
Versions: 1 2 3 4 5 6 7 8 9 10 11 12 13 14 15 16 17 18 19 20 21 22 23 24 25 26 27 28 29 30 31
000
FTUS43 KDMX 302004 AAA
TAFALO
TAF AMD
KALO 302004Z 3020/3118 02014G20KT P6SM BKN018 OVC025
      TEMPO 3020/3023 SCT015 BKN024 OVC030
     FM302300 02012G18KT P6SM SCT030 BKN100
     FM310100 05007KT P6SM FEW120=

USA.gov is the U.S. government's official web portal to all federal, state and local government web resources and services.